sensor_id;sensor_type;location;lat;lon;timestamp;P1;durP1;ratioP1;P2;durP2;ratioP2
32108;SDS011;18624;50.042;8.436;2023-05-07T00:01:00;2.35;;;1.23;;
32108;SDS011;18624;50.042;8.436;2023-05-07T00:03:27;2.25;;;1.45;;
32108;SDS011;18624;50.042;8.436;2023-05-07T00:05:54;1.75;;;0.90;;
32108;SDS011;18624;50.042;8.436;2023-05-07T00:08:20;2.67;;;1.73;;
32108;SDS011;18624;50.042;8.436;2023-05-07T00:10:47;2.97;;;1.70;;
32108;SDS011;18624;50.042;8.436;2023-05-07T00:13:14;2.65;;;1.55;;
32108;SDS011;18624;50.042;8.436;2023-05-07T00:15:41;2.05;;;1.77;;
32108;SDS011;18624;50.042;8.436;2023-05-07T00:18:07;1.88;;;1.20;;
32108;SDS011;18624;50.042;8.436;2023-05-07T00:20:34;2.15;;;1.52;;
32108;SDS011;18624;50.042;8.436;2023-05-07T00:23:01;2.70;;;1.50;;
32108;SDS011;18624;50.042;8.436;2023-05-07T00:25:28;4.25;;;1.83;;
32108;SDS011;18624;50.042;8.436;2023-05-07T00:27:54;1.77;;;1.52;;
32108;SDS011;18624;50.042;8.436;2023-05-07T00:30:20;1.95;;;1.58;;
32108;SDS011;18624;50.042;8.436;2023-05-07T00:32:47;1.58;;;1.17;;
32108;SDS011;18624;50.042;8.436;2023-05-07T00:35:15;3.75;;;2.00;;
32108;SDS011;18624;50.042;8.436;2023-05-07T00:37:41;3.60;;;1.65;;
32108;SDS011;18624;50.042;8.436;2023-05-07T00:40:08;1.52;;;1.27;;
32108;SDS011;18624;50.042;8.436;2023-05-07T00:42:35;1.98;;;1.70;;
32108;SDS011;18624;50.042;8.436;2023-05-07T00:45:02;2.30;;;1.65;;
32108;SDS011;18624;50.042;8.436;2023-05-07T00:47:29;2.30;;;2.00;;
32108;SDS011;18624;50.042;8.436;2023-05-07T00:49:56;2.65;;;1.80;;
32108;SDS011;18624;50.042;8.436;2023-05-07T00:52:23;2.00;;;1.52;;
32108;SDS011;18624;50.042;8.436;2023-05-07T00:54:52;1.75;;;1.50;;
32108;SDS011;18624;50.042;8.436;2023-05-07T00:57:19;1.70;;;1.50;;
32108;SDS011;18624;50.042;8.436;2023-05-07T00:59:47;1.52;;;1.38;;
32108;SDS011;18624;50.042;8.436;2023-05-07T01:02:14;2.10;;;1.83;;
32108;SDS011;18624;50.042;8.436;2023-05-07T01:04:41;2.38;;;1.63;;
32108;SDS011;18624;50.042;8.436;2023-05-07T01:07:08;2.55;;;1.67;;
32108;SDS011;18624;50.042;8.436;2023-05-07T01:09:35;1.92;;;1.45;;
32108;SDS011;18624;50.042;8.436;2023-05-07T01:12:02;2.65;;;1.40;;
32108;SDS011;18624;50.042;8.436;2023-05-07T01:14:29;1.60;;;1.35;;
32108;SDS011;18624;50.042;8.436;2023-05-07T01:16:57;3.67;;;2.20;;
32108;SDS011;18624;50.042;8.436;2023-05-07T01:19:24;3.00;;;1.65;;
32108;SDS011;18624;50.042;8.436;2023-05-07T01:21:51;1.63;;;1.50;;
32108;SDS011;18624;50.042;8.436;2023-05-07T01:24:25;2.03;;;1.40;;
32108;SDS011;18624;50.042;8.436;2023-05-07T01:26:52;2.20;;;1.73;;
32108;SDS011;18624;50.042;8.436;2023-05-07T01:29:18;1.85;;;1.30;;
32108;SDS011;18624;50.042;8.436;2023-05-07T01:31:45;2.25;;;1.67;;
32108;SDS011;18624;50.042;8.436;2023-05-07T01:34:13;2.42;;;1.70;;
32108;SDS011;18624;50.042;8.436;2023-05-07T01:36:43;2.30;;;1.55;;
32108;SDS011;18624;50.042;8.436;2023-05-07T01:39:10;2.10;;;1.88;;
32108;SDS011;18624;50.042;8.436;2023-05-07T01:41:38;2.78;;;1.70;;
32108;SDS011;18624;50.042;8.436;2023-05-07T01:44:05;2.55;;;1.50;;
32108;SDS011;18624;50.042;8.436;2023-05-07T01:46:32;2.20;;;1.92;;
32108;SDS011;18624;50.042;8.436;2023-05-07T01:48:59;2.42;;;1.63;;
32108;SDS011;18624;50.042;8.436;2023-05-07T01:51:25;2.78;;;1.50;;
32108;SDS011;18624;50.042;8.436;2023-05-07T01:53:52;2.25;;;1.50;;
32108;SDS011;18624;50.042;8.436;2023-05-07T01:56:19;1.80;;;1.40;;
32108;SDS011;18624;50.042;8.436;2023-05-07T01:58:46;1.98;;;1.80;;
32108;SDS011;18624;50.042;8.436;2023-05-07T02:01:13;2.63;;;1.58;;
32108;SDS011;18624;50.042;8.436;2023-05-07T02:03:41;3.35;;;1.85;;
32108;SDS011;18624;50.042;8.436;2023-05-07T02:06:15;1.80;;;1.30;;
32108;SDS011;18624;50.042;8.436;2023-05-07T02:08:42;2.95;;;1.80;;
32108;SDS011;18624;50.042;8.436;2023-05-07T02:11:10;2.00;;;1.40;;
32108;SDS011;18624;50.042;8.436;2023-05-07T02:13:36;2.05;;;1.88;;
32108;SDS011;18624;50.042;8.436;2023-05-07T02:16:03;1.95;;;1.27;;
32108;SDS011;18624;50.042;8.436;2023-05-07T02:18:30;3.03;;;1.35;;
32108;SDS011;18624;50.042;8.436;2023-05-07T02:20:57;3.08;;;1.60;;
32108;SDS011;18624;50.042;8.436;2023-05-07T02:23:23;2.60;;;1.42;;
32108;SDS011;18624;50.042;8.436;2023-05-07T02:25:50;2.15;;;1.58;;
32108;SDS011;18624;50.042;8.436;2023-05-07T02:28:17;2.42;;;1.77;;
32108;SDS011;18624;50.042;8.436;2023-05-07T02:30:49;3.17;;;1.85;;
32108;SDS011;18624;50.042;8.436;2023-05-07T02:33:16;2.20;;;1.55;;
32108;SDS011;18624;50.042;8.436;2023-05-07T02:35:43;3.60;;;1.77;;
32108;SDS011;18624;50.042;8.436;2023-05-07T02:38:11;2.20;;;1.30;;
32108;SDS011;18624;50.042;8.436;2023-05-07T02:40:39;2.92;;;1.60;;
32108;SDS011;18624;50.042;8.436;2023-05-07T02:43:06;2.05;;;1.70;;
32108;SDS011;18624;50.042;8.436;2023-05-07T02:45:33;1.50;;;1.30;;
32108;SDS011;18624;50.042;8.436;2023-05-07T02:48:01;1.95;;;1.58;;
32108;SDS011;18624;50.042;8.436;2023-05-07T02:50:27;4.90;;;2.40;;
32108;SDS011;18624;50.042;8.436;2023-05-07T02:52:54;2.10;;;1.70;;
32108;SDS011;18624;50.042;8.436;2023-05-07T02:55:20;3.03;;;2.10;;
32108;SDS011;18624;50.042;8.436;2023-05-07T02:57:47;2.47;;;1.35;;
32108;SDS011;18624;50.042;8.436;2023-05-07T03:00:14;2.38;;;1.85;;
32108;SDS011;18624;50.042;8.436;2023-05-07T03:03:03;2.22;;;2.00;;
32108;SDS011;18624;50.042;8.436;2023-05-07T03:05:29;1.90;;;1.60;;
32108;SDS011;18624;50.042;8.436;2023-05-07T03:07:56;2.13;;;1.60;;
32108;SDS011;18624;50.042;8.436;2023-05-07T03:10:22;4.22;;;1.52;;
32108;SDS011;18624;50.042;8.436;2023-05-07T03:12:49;2.00;;;1.80;;
32108;SDS011;18624;50.042;8.436;2023-05-07T03:15:16;1.70;;;1.55;;
32108;SDS011;18624;50.042;8.436;2023-05-07T03:17:43;3.30;;;1.88;;
32108;SDS011;18624;50.042;8.436;2023-05-07T03:20:09;2.05;;;1.52;;
32108;SDS011;18624;50.042;8.436;2023-05-07T03:22:38;2.65;;;2.28;;
32108;SDS011;18624;50.042;8.436;2023-05-07T03:25:04;3.63;;;2.13;;
32108;SDS011;18624;50.042;8.436;2023-05-07T03:27:31;1.85;;;1.48;;
32108;SDS011;18624;50.042;8.436;2023-05-07T03:29:58;2.70;;;1.65;;
32108;SDS011;18624;50.042;8.436;2023-05-07T03:32:24;1.58;;;1.45;;
32108;SDS011;18624;50.042;8.436;2023-05-07T03:34:51;2.80;;;1.92;;
32108;SDS011;18624;50.042;8.436;2023-05-07T03:37:18;2.45;;;1.50;;
32108;SDS011;18624;50.042;8.436;2023-05-07T03:39:44;1.67;;;1.58;;
32108;SDS011;18624;50.042;8.436;2023-05-07T03:42:11;3.60;;;1.80;;
32108;SDS011;18624;50.042;8.436;2023-05-07T03:44:37;2.67;;;1.50;;
32108;SDS011;18624;50.042;8.436;2023-05-07T03:47:04;1.77;;;1.55;;
32108;SDS011;18624;50.042;8.436;2023-05-07T03:49:31;2.50;;;1.73;;
32108;SDS011;18624;50.042;8.436;2023-05-07T03:51:58;2.38;;;1.77;;
32108;SDS011;18624;50.042;8.436;2023-05-07T03:54:24;2.20;;;1.67;;
32108;SDS011;18624;50.042;8.436;2023-05-07T03:56:51;2.90;;;1.60;;
32108;SDS011;18624;50.042;8.436;2023-05-07T03:59:17;4.78;;;1.92;;
32108;SDS011;18624;50.042;8.436;2023-05-07T04:01:46;4.80;;;2.10;;
32108;SDS011;18624;50.042;8.436;2023-05-07T04:04:15;3.63;;;1.90;;
32108;SDS011;18624;50.042;8.436;2023-05-07T04:06:42;3.80;;;2.10;;
32108;SDS011;18624;50.042;8.436;2023-05-07T04:09:09;1.70;;;1.58;;
32108;SDS011;18624;50.042;8.436;2023-05-07T04:11:37;2.78;;;1.65;;
32108;SDS011;18624;50.042;8.436;2023-05-07T04:14:04;2.03;;;1.83;;
32108;SDS011;18624;50.042;8.436;2023-05-07T04:16:31;8.50;;;2.63;;
32108;SDS011;18624;50.042;8.436;2023-05-07T04:18:58;1.90;;;1.70;;
32108;SDS011;18624;50.042;8.436;2023-05-07T04:21:24;2.28;;;1.48;;
32108;SDS011;18624;50.042;8.436;2023-05-07T04:23:53;2.05;;;1.77;;
32108;SDS011;18624;50.042;8.436;2023-05-07T04:26:20;3.08;;;2.05;;
32108;SDS011;18624;50.042;8.436;2023-05-07T04:28:47;3.20;;;1.70;;
32108;SDS011;18624;50.042;8.436;2023-05-07T04:31:14;2.03;;;1.38;;
32108;SDS011;18624;50.042;8.436;2023-05-07T04:33:41;1.70;;;1.60;;
32108;SDS011;18624;50.042;8.436;2023-05-07T04:36:11;2.08;;;1.85;;
32108;SDS011;18624;50.042;8.436;2023-05-07T04:38:45;3.20;;;1.98;;
32108;SDS011;18624;50.042;8.436;2023-05-07T04:41:12;2.03;;;1.65;;
32108;SDS011;18624;50.042;8.436;2023-05-07T04:43:39;2.17;;;1.70;;
32108;SDS011;18624;50.042;8.436;2023-05-07T04:46:08;3.47;;;1.90;;
32108;SDS011;18624;50.042;8.436;2023-05-07T04:48:34;2.38;;;1.70;;
32108;SDS011;18624;50.042;8.436;2023-05-07T04:51:03;2.72;;;1.92;;
32108;SDS011;18624;50.042;8.436;2023-05-07T04:53:30;2.15;;;1.95;;
32108;SDS011;18624;50.042;8.436;2023-05-07T04:55:57;2.13;;;1.80;;
32108;SDS011;18624;50.042;8.436;2023-05-07T04:58:29;3.60;;;2.00;;
32108;SDS011;18624;50.042;8.436;2023-05-07T05:00:58;3.13;;;2.00;;
32108;SDS011;18624;50.042;8.436;2023-05-07T05:03:25;2.67;;;1.65;;
32108;SDS011;18624;50.042;8.436;2023-05-07T05:05:52;2.80;;;2.05;;
32108;SDS011;18624;50.042;8.436;2023-05-07T05:08:20;3.03;;;2.00;;
32108;SDS011;18624;50.042;8.436;2023-05-07T05:10:46;1.77;;;1.67;;
32108;SDS011;18624;50.042;8.436;2023-05-07T05:13:15;3.05;;;1.80;;
32108;SDS011;18624;50.042;8.436;2023-05-07T05:15:41;2.08;;;1.80;;
32108;SDS011;18624;50.042;8.436;2023-05-07T05:18:08;2.97;;;1.88;;
32108;SDS011;18624;50.042;8.436;2023-05-07T05:20:35;2.20;;;2.00;;
32108;SDS011;18624;50.042;8.436;2023-05-07T05:23:02;2.55;;;1.92;;
32108;SDS011;18624;50.042;8.436;2023-05-07T05:25:29;2.95;;;2.17;;
32108;SDS011;18624;50.042;8.436;2023-05-07T05:27:57;5.35;;;1.92;;
32108;SDS011;18624;50.042;8.436;2023-05-07T05:30:24;3.03;;;2.10;;
32108;SDS011;18624;50.042;8.436;2023-05-07T05:32:50;2.92;;;1.88;;
32108;SDS011;18624;50.042;8.436;2023-05-07T05:35:17;2.88;;;1.83;;
32108;SDS011;18624;50.042;8.436;2023-05-07T05:37:43;2.47;;;1.90;;
32108;SDS011;18624;50.042;8.436;2023-05-07T05:40:11;2.17;;;1.88;;
32108;SDS011;18624;50.042;8.436;2023-05-07T05:42:38;2.03;;;1.83;;
32108;SDS011;18624;50.042;8.436;2023-05-07T05:45:05;2.53;;;1.65;;
32108;SDS011;18624;50.042;8.436;2023-05-07T05:47:33;3.28;;;1.80;;
32108;SDS011;18624;50.042;8.436;2023-05-07T05:50:00;2.40;;;2.03;;
32108;SDS011;18624;50.042;8.436;2023-05-07T05:52:27;3.58;;;1.92;;
32108;SDS011;18624;50.042;8.436;2023-05-07T05:54:55;4.78;;;2.67;;
32108;SDS011;18624;50.042;8.436;2023-05-07T05:57:21;3.90;;;1.75;;
32108;SDS011;18624;50.042;8.436;2023-05-07T05:59:48;1.98;;;1.88;;
32108;SDS011;18624;50.042;8.436;2023-05-07T06:02:15;2.90;;;2.10;;
32108;SDS011;18624;50.042;8.436;2023-05-07T06:04:42;2.55;;;1.85;;
32108;SDS011;18624;50.042;8.436;2023-05-07T06:07:11;2.50;;;1.75;;
32108;SDS011;18624;50.042;8.436;2023-05-07T06:09:38;1.95;;;1.70;;
32108;SDS011;18624;50.042;8.436;2023-05-07T06:12:04;3.90;;;2.08;;
32108;SDS011;18624;50.042;8.436;2023-05-07T06:14:31;3.25;;;2.20;;
32108;SDS011;18624;50.042;8.436;2023-05-07T06:16:58;3.97;;;2.17;;
32108;SDS011;18624;50.042;8.436;2023-05-07T06:19:25;2.92;;;2.15;;
32108;SDS011;18624;50.042;8.436;2023-05-07T06:21:53;2.85;;;2.10;;
32108;SDS011;18624;50.042;8.436;2023-05-07T06:24:20;3.90;;;2.38;;
32108;SDS011;18624;50.042;8.436;2023-05-07T06:26:47;6.40;;;2.80;;
32108;SDS011;18624;50.042;8.436;2023-05-07T06:29:13;3.47;;;2.08;;
32108;SDS011;18624;50.042;8.436;2023-05-07T06:31:41;2.55;;;2.10;;
32108;SDS011;18624;50.042;8.436;2023-05-07T06:34:09;4.18;;;2.38;;
32108;SDS011;18624;50.042;8.436;2023-05-07T06:36:37;2.67;;;2.13;;
32108;SDS011;18624;50.042;8.436;2023-05-07T06:39:12;10.13;;;3.05;;
32108;SDS011;18624;50.042;8.436;2023-05-07T06:41:39;3.47;;;2.70;;
32108;SDS011;18624;50.042;8.436;2023-05-07T06:44:14;3.97;;;2.67;;
32108;SDS011;18624;50.042;8.436;2023-05-07T06:46:45;2.83;;;2.55;;
32108;SDS011;18624;50.042;8.436;2023-05-07T06:49:12;2.28;;;2.08;;
32108;SDS011;18624;50.042;8.436;2023-05-07T06:51:39;4.00;;;2.25;;
32108;SDS011;18624;50.042;8.436;2023-05-07T06:54:06;3.28;;;2.50;;
32108;SDS011;18624;50.042;8.436;2023-05-07T06:56:35;2.75;;;2.20;;
32108;SDS011;18624;50.042;8.436;2023-05-07T06:59:03;4.57;;;2.38;;
32108;SDS011;18624;50.042;8.436;2023-05-07T07:01:34;2.95;;;2.65;;
32108;SDS011;18624;50.042;8.436;2023-05-07T07:04:02;4.47;;;2.70;;
32108;SDS011;18624;50.042;8.436;2023-05-07T07:06:29;2.90;;;2.70;;
32108;SDS011;18624;50.042;8.436;2023-05-07T07:08:59;4.45;;;2.75;;
32108;SDS011;18624;50.042;8.436;2023-05-07T07:11:27;3.92;;;2.75;;
32108;SDS011;18624;50.042;8.436;2023-05-07T07:13:53;4.63;;;3.30;;
32108;SDS011;18624;50.042;8.436;2023-05-07T07:16:21;3.17;;;2.90;;
32108;SDS011;18624;50.042;8.436;2023-05-07T07:18:49;2.80;;;2.50;;
32108;SDS011;18624;50.042;8.436;2023-05-07T07:21:16;4.88;;;3.08;;
32108;SDS011;18624;50.042;8.436;2023-05-07T07:23:43;2.92;;;2.63;;
32108;SDS011;18624;50.042;8.436;2023-05-07T07:26:10;4.43;;;3.38;;
32108;SDS011;18624;50.042;8.436;2023-05-07T07:28:41;2.75;;;2.55;;
32108;SDS011;18624;50.042;8.436;2023-05-07T07:31:12;5.18;;;3.13;;
32108;SDS011;18624;50.042;8.436;2023-05-07T07:33:39;3.30;;;2.90;;
32108;SDS011;18624;50.042;8.436;2023-05-07T07:36:06;4.07;;;3.20;;
32108;SDS011;18624;50.042;8.436;2023-05-07T07:38:34;3.55;;;3.25;;
32108;SDS011;18624;50.042;8.436;2023-05-07T07:41:01;3.70;;;3.05;;
32108;SDS011;18624;50.042;8.436;2023-05-07T07:43:28;4.13;;;3.40;;
32108;SDS011;18624;50.042;8.436;2023-05-07T07:45:55;3.88;;;3.00;;
32108;SDS011;18624;50.042;8.436;2023-05-07T07:48:22;4.68;;;3.33;;
32108;SDS011;18624;50.042;8.436;2023-05-07T07:50:49;4.10;;;2.47;;
32108;SDS011;18624;50.042;8.436;2023-05-07T07:53:18;4.07;;;2.70;;
32108;SDS011;18624;50.042;8.436;2023-05-07T07:55:44;4.57;;;3.03;;
32108;SDS011;18624;50.042;8.436;2023-05-07T07:58:15;3.25;;;2.95;;
32108;SDS011;18624;50.042;8.436;2023-05-07T08:00:41;3.63;;;3.30;;
32108;SDS011;18624;50.042;8.436;2023-05-07T08:03:11;3.08;;;2.78;;
32108;SDS011;18624;50.042;8.436;2023-05-07T08:05:42;3.45;;;3.13;;
32108;SDS011;18624;50.042;8.436;2023-05-07T08:08:09;4.43;;;3.50;;
32108;SDS011;18624;50.042;8.436;2023-05-07T08:10:37;4.25;;;3.20;;
32108;SDS011;18624;50.042;8.436;2023-05-07T08:13:11;3.22;;;2.72;;
32108;SDS011;18624;50.042;8.436;2023-05-07T08:15:39;4.15;;;3.53;;
32108;SDS011;18624;50.042;8.436;2023-05-07T08:18:05;3.95;;;2.80;;
32108;SDS011;18624;50.042;8.436;2023-05-07T08:20:32;4.78;;;3.63;;
32108;SDS011;18624;50.042;8.436;2023-05-07T08:22:59;3.83;;;3.42;;
32108;SDS011;18624;50.042;8.436;2023-05-07T08:25:26;3.90;;;3.50;;
32108;SDS011;18624;50.042;8.436;2023-05-07T08:27:53;3.70;;;3.40;;
32108;SDS011;18624;50.042;8.436;2023-05-07T08:30:19;5.07;;;4.25;;
32108;SDS011;18624;50.042;8.436;2023-05-07T08:32:46;4.22;;;3.83;;
32108;SDS011;18624;50.042;8.436;2023-05-07T08:35:13;3.90;;;3.60;;
32108;SDS011;18624;50.042;8.436;2023-05-07T08:37:39;3.95;;;3.65;;
32108;SDS011;18624;50.042;8.436;2023-05-07T08:40:06;3.88;;;3.58;;
32108;SDS011;18624;50.042;8.436;2023-05-07T08:42:37;5.57;;;3.47;;
32108;SDS011;18624;50.042;8.436;2023-05-07T08:45:09;5.32;;;3.75;;
32108;SDS011;18624;50.042;8.436;2023-05-07T08:47:43;3.53;;;3.20;;
32108;SDS011;18624;50.042;8.436;2023-05-07T08:50:14;4.28;;;3.63;;
32108;SDS011;18624;50.042;8.436;2023-05-07T08:52:41;4.70;;;3.47;;
32108;SDS011;18624;50.042;8.436;2023-05-07T08:55:09;3.75;;;3.45;;
32108;SDS011;18624;50.042;8.436;2023-05-07T08:57:36;4.88;;;3.30;;
32108;SDS011;18624;50.042;8.436;2023-05-07T09:00:06;5.10;;;4.60;;
32108;SDS011;18624;50.042;8.436;2023-05-07T09:02:35;3.92;;;3.30;;
32108;SDS011;18624;50.042;8.436;2023-05-07T09:05:04;4.32;;;3.53;;
32108;SDS011;18624;50.042;8.436;2023-05-07T09:07:31;3.95;;;3.55;;
32108;SDS011;18624;50.042;8.436;2023-05-07T09:09:58;4.85;;;4.05;;
32108;SDS011;18624;50.042;8.436;2023-05-07T09:12:26;5.00;;;3.60;;
32108;SDS011;18624;50.042;8.436;2023-05-07T09:14:53;4.03;;;3.63;;
32108;SDS011;18624;50.042;8.436;2023-05-07T09:17:20;4.75;;;3.92;;
32108;SDS011;18624;50.042;8.436;2023-05-07T09:19:46;4.55;;;3.50;;
32108;SDS011;18624;50.042;8.436;2023-05-07T09:22:14;4.13;;;3.72;;
32108;SDS011;18624;50.042;8.436;2023-05-07T09:24:59;4.57;;;3.90;;
32108;SDS011;18624;50.042;8.436;2023-05-07T09:27:27;4.38;;;3.72;;
32108;SDS011;18624;50.042;8.436;2023-05-07T09:29:55;4.90;;;3.88;;
32108;SDS011;18624;50.042;8.436;2023-05-07T09:32:21;4.90;;;3.63;;
32108;SDS011;18624;50.042;8.436;2023-05-07T09:34:48;4.47;;;3.47;;
32108;SDS011;18624;50.042;8.436;2023-05-07T09:37:17;7.20;;;3.63;;
32108;SDS011;18624;50.042;8.436;2023-05-07T09:39:45;4.32;;;3.65;;
32108;SDS011;18624;50.042;8.436;2023-05-07T09:42:15;4.07;;;3.67;;
32108;SDS011;18624;50.042;8.436;2023-05-07T09:44:43;4.15;;;3.33;;
32108;SDS011;18624;50.042;8.436;2023-05-07T09:47:20;4.43;;;3.83;;
32108;SDS011;18624;50.042;8.436;2023-05-07T09:49:54;3.83;;;3.45;;
32108;SDS011;18624;50.042;8.436;2023-05-07T09:52:23;5.05;;;3.47;;
32108;SDS011;18624;50.042;8.436;2023-05-07T09:54:54;4.25;;;3.95;;
32108;SDS011;18624;50.042;8.436;2023-05-07T09:57:27;3.90;;;3.60;;
32108;SDS011;18624;50.042;8.436;2023-05-07T09:59:58;6.07;;;4.63;;
32108;SDS011;18624;50.042;8.436;2023-05-07T10:02:30;3.78;;;3.47;;
32108;SDS011;18624;50.042;8.436;2023-05-07T10:04:57;4.60;;;4.15;;
32108;SDS011;18624;50.042;8.436;2023-05-07T10:07:29;4.72;;;4.00;;
32108;SDS011;18624;50.042;8.436;2023-05-07T10:10:02;4.45;;;4.05;;
32108;SDS011;18624;50.042;8.436;2023-05-07T10:12:34;4.65;;;4.10;;
32108;SDS011;18624;50.042;8.436;2023-05-07T10:15:09;4.38;;;3.97;;
32108;SDS011;18624;50.042;8.436;2023-05-07T10:17:40;4.40;;;3.28;;
32108;SDS011;18624;50.042;8.436;2023-05-07T10:20:08;4.10;;;3.80;;
32108;SDS011;18624;50.042;8.436;2023-05-07T10:22:42;4.03;;;3.65;;
32108;SDS011;18624;50.042;8.436;2023-05-07T10:27:47;3.92;;;3.63;;
32108;SDS011;18624;50.042;8.436;2023-05-07T10:30:19;4.00;;;3.63;;
32108;SDS011;18624;50.042;8.436;2023-05-07T10:32:59;5.90;;;4.50;;
32108;SDS011;18624;50.042;8.436;2023-05-07T10:35:43;4.00;;;3.70;;
32108;SDS011;18624;50.042;8.436;2023-05-07T10:38:12;4.78;;;4.38;;
32108;SDS011;18624;50.042;8.436;2023-05-07T10:40:41;4.50;;;4.07;;
32108;SDS011;18624;50.042;8.436;2023-05-07T10:43:07;4.45;;;4.00;;
32108;SDS011;18624;50.042;8.436;2023-05-07T10:46:09;5.32;;;3.85;;
32108;SDS011;18624;50.042;8.436;2023-05-07T10:51:40;4.32;;;4.03;;
32108;SDS011;18624;50.042;8.436;2023-05-07T10:54:18;4.32;;;4.00;;
32108;SDS011;18624;50.042;8.436;2023-05-07T10:56:54;4.38;;;4.00;;
32108;SDS011;18624;50.042;8.436;2023-05-07T10:59:31;3.72;;;3.42;;
32108;SDS011;18624;50.042;8.436;2023-05-07T11:02:08;4.30;;;4.00;;
32108;SDS011;18624;50.042;8.436;2023-05-07T11:04:43;4.75;;;3.40;;
32108;SDS011;18624;50.042;8.436;2023-05-07T11:07:21;3.60;;;3.30;;
32108;SDS011;18624;50.042;8.436;2023-05-07T11:09:54;5.15;;;3.92;;
32108;SDS011;18624;50.042;8.436;2023-05-07T11:15:10;4.25;;;3.63;;
32108;SDS011;18624;50.042;8.436;2023-05-07T11:17:54;4.30;;;3.88;;
32108;SDS011;18624;50.042;8.436;2023-05-07T11:26:25;4.90;;;4.15;;
32108;SDS011;18624;50.042;8.436;2023-05-07T11:28:53;4.57;;;4.18;;
32108;SDS011;18624;50.042;8.436;2023-05-07T11:31:26;5.22;;;3.75;;
32108;SDS011;18624;50.042;8.436;2023-05-07T11:33:56;3.40;;;3.10;;
32108;SDS011;18624;50.042;8.436;2023-05-07T11:36:24;4.78;;;4.35;;
32108;SDS011;18624;50.042;8.436;2023-05-07T11:38:53;4.10;;;3.80;;
32108;SDS011;18624;50.042;8.436;2023-05-07T11:41:19;4.00;;;3.65;;
32108;SDS011;18624;50.042;8.436;2023-05-07T11:43:53;3.17;;;2.97;;
32108;SDS011;18624;50.042;8.436;2023-05-07T11:46:21;3.45;;;3.15;;
32108;SDS011;18624;50.042;8.436;2023-05-07T11:48:48;4.38;;;3.97;;
32108;SDS011;18624;50.042;8.436;2023-05-07T11:51:18;4.82;;;4.30;;
32108;SDS011;18624;50.042;8.436;2023-05-07T11:53:45;5.18;;;3.80;;
32108;SDS011;18624;50.042;8.436;2023-05-07T11:56:13;4.55;;;4.15;;
32108;SDS011;18624;50.042;8.436;2023-05-07T11:58:41;4.55;;;4.15;;
32108;SDS011;18624;50.042;8.436;2023-05-07T12:01:09;3.38;;;3.10;;
32108;SDS011;18624;50.042;8.436;2023-05-07T12:03:36;4.93;;;4.43;;
32108;SDS011;18624;50.042;8.436;2023-05-07T12:06:07;4.35;;;3.95;;
32108;SDS011;18624;50.042;8.436;2023-05-07T12:08:35;3.88;;;2.83;;
32108;SDS011;18624;50.042;8.436;2023-05-07T12:11:03;3.35;;;2.30;;
32108;SDS011;18624;50.042;8.436;2023-05-07T12:13:32;2.30;;;1.90;;
32108;SDS011;18624;50.042;8.436;2023-05-07T12:15:59;6.35;;;2.38;;
32108;SDS011;18624;50.042;8.436;2023-05-07T12:18:25;2.83;;;1.92;;
32108;SDS011;18624;50.042;8.436;2023-05-07T12:20:52;2.05;;;1.95;;
32108;SDS011;18624;50.042;8.436;2023-05-07T12:23:19;2.67;;;2.15;;
32108;SDS011;18624;50.042;8.436;2023-05-07T12:25:46;2.88;;;1.48;;
32108;SDS011;18624;50.042;8.436;2023-05-07T12:28:14;2.55;;;1.67;;
32108;SDS011;18624;50.042;8.436;2023-05-07T12:30:42;1.73;;;1.60;;
32108;SDS011;18624;50.042;8.436;2023-05-07T12:33:09;2.85;;;2.13;;
32108;SDS011;18624;50.042;8.436;2023-05-07T12:35:37;3.88;;;2.38;;
32108;SDS011;18624;50.042;8.436;2023-05-07T12:38:08;3.78;;;2.05;;
32108;SDS011;18624;50.042;8.436;2023-05-07T12:43:20;2.30;;;2.17;;
32108;SDS011;18624;50.042;8.436;2023-05-07T12:45:49;2.53;;;2.33;;
32108;SDS011;18624;50.042;8.436;2023-05-07T12:48:17;3.55;;;2.40;;
32108;SDS011;18624;50.042;8.436;2023-05-07T12:50:48;2.40;;;2.20;;
32108;SDS011;18624;50.042;8.436;2023-05-07T12:53:16;2.92;;;2.72;;
32108;SDS011;18624;50.042;8.436;2023-05-07T12:55:43;4.70;;;2.92;;
32108;SDS011;18624;50.042;8.436;2023-05-07T12:58:22;3.40;;;2.67;;
32108;SDS011;18624;50.042;8.436;2023-05-07T13:00:51;2.20;;;1.90;;
32108;SDS011;18624;50.042;8.436;2023-05-07T13:03:22;2.47;;;2.03;;
32108;SDS011;18624;50.042;8.436;2023-05-07T13:05:57;4.10;;;2.28;;
32108;SDS011;18624;50.042;8.436;2023-05-07T13:08:26;1.67;;;1.58;;
32108;SDS011;18624;50.042;8.436;2023-05-07T13:10:54;2.22;;;1.83;;
32108;SDS011;18624;50.042;8.436;2023-05-07T13:13:20;3.80;;;2.10;;
32108;SDS011;18624;50.042;8.436;2023-05-07T13:15:48;3.10;;;2.00;;
32108;SDS011;18624;50.042;8.436;2023-05-07T13:18:15;2.72;;;2.50;;
32108;SDS011;18624;50.042;8.436;2023-05-07T13:20:41;2.28;;;2.15;;
32108;SDS011;18624;50.042;8.436;2023-05-07T13:23:08;3.35;;;2.42;;
32108;SDS011;18624;50.042;8.436;2023-05-07T13:25:34;2.50;;;2.30;;
32108;SDS011;18624;50.042;8.436;2023-05-07T13:28:03;2.97;;;2.40;;
32108;SDS011;18624;50.042;8.436;2023-05-07T13:30:36;2.47;;;2.20;;
32108;SDS011;18624;50.042;8.436;2023-05-07T13:33:03;15.07;;;2.83;;
32108;SDS011;18624;50.042;8.436;2023-05-07T13:35:30;4.35;;;2.63;;
32108;SDS011;18624;50.042;8.436;2023-05-07T13:37:56;2.90;;;2.70;;
32108;SDS011;18624;50.042;8.436;2023-05-07T13:40:23;2.83;;;2.50;;
32108;SDS011;18624;50.042;8.436;2023-05-07T13:42:50;2.83;;;2.13;;
32108;SDS011;18624;50.042;8.436;2023-05-07T13:45:20;2.83;;;2.05;;
32108;SDS011;18624;50.042;8.436;2023-05-07T13:47:46;2.83;;;2.60;;
32108;SDS011;18624;50.042;8.436;2023-05-07T13:50:13;2.47;;;2.10;;
32108;SDS011;18624;50.042;8.436;2023-05-07T13:52:40;4.10;;;3.28;;
32108;SDS011;18624;50.042;8.436;2023-05-07T13:55:12;2.90;;;2.67;;
32108;SDS011;18624;50.042;8.436;2023-05-07T13:57:42;2.95;;;2.70;;
32108;SDS011;18624;50.042;8.436;2023-05-07T14:00:08;3.78;;;2.70;;
32108;SDS011;18624;50.042;8.436;2023-05-07T14:02:42;2.90;;;2.70;;
32108;SDS011;18624;50.042;8.436;2023-05-07T14:05:08;2.58;;;2.20;;
32108;SDS011;18624;50.042;8.436;2023-05-07T14:07:36;2.80;;;2.47;;
32108;SDS011;18624;50.042;8.436;2023-05-07T14:10:03;3.17;;;2.53;;
32108;SDS011;18624;50.042;8.436;2023-05-07T14:12:30;2.70;;;2.50;;
32108;SDS011;18624;50.042;8.436;2023-05-07T14:14:58;2.45;;;2.25;;
32108;SDS011;18624;50.042;8.436;2023-05-07T14:17:24;2.40;;;2.15;;
32108;SDS011;18624;50.042;8.436;2023-05-07T14:19:52;2.72;;;2.47;;
32108;SDS011;18624;50.042;8.436;2023-05-07T14:22:23;4.65;;;3.03;;
32108;SDS011;18624;50.042;8.436;2023-05-07T14:24:50;4.03;;;3.50;;
32108;SDS011;18624;50.042;8.436;2023-05-07T14:27:31;4.07;;;3.42;;
32108;SDS011;18624;50.042;8.436;2023-05-07T14:29:58;4.43;;;3.67;;
32108;SDS011;18624;50.042;8.436;2023-05-07T14:32:24;3.63;;;3.33;;
32108;SDS011;18624;50.042;8.436;2023-05-07T14:34:51;4.63;;;3.20;;
32108;SDS011;18624;50.042;8.436;2023-05-07T14:37:17;3.25;;;2.95;;
32108;SDS011;18624;50.042;8.436;2023-05-07T14:39:45;3.83;;;3.50;;
32108;SDS011;18624;50.042;8.436;2023-05-07T14:42:15;3.58;;;3.28;;
32108;SDS011;18624;50.042;8.436;2023-05-07T14:44:42;3.60;;;2.92;;
32108;SDS011;18624;50.042;8.436;2023-05-07T14:47:09;4.43;;;3.15;;
32108;SDS011;18624;50.042;8.436;2023-05-07T14:49:35;5.03;;;3.20;;
32108;SDS011;18624;50.042;8.436;2023-05-07T14:52:02;3.47;;;3.08;;
32108;SDS011;18624;50.042;8.436;2023-05-07T14:54:30;3.50;;;3.20;;
32108;SDS011;18624;50.042;8.436;2023-05-07T14:56:56;3.72;;;3.13;;
32108;SDS011;18624;50.042;8.436;2023-05-07T14:59:23;4.05;;;2.97;;
32108;SDS011;18624;50.042;8.436;2023-05-07T15:01:51;2.80;;;2.60;;
32108;SDS011;18624;50.042;8.436;2023-05-07T15:04:17;3.00;;;2.80;;
32108;SDS011;18624;50.042;8.436;2023-05-07T15:06:44;3.95;;;3.00;;
32108;SDS011;18624;50.042;8.436;2023-05-07T15:09:11;3.40;;;3.10;;
32108;SDS011;18624;50.042;8.436;2023-05-07T15:11:37;3.80;;;3.50;;